createdAt,value
2024-01-09T00:01:14.433Z,103226.47
2024-01-09T00:03:41.099Z,103236.41
2024-01-09T00:06:07.794Z,103231.69
2024-01-09T00:08:34.550Z,103223.06
2024-01-09T00:11:01.476Z,103226.03
2024-01-09T00:13:28.113Z,103236.38
2024-01-09T00:15:54.740Z,103237.28
2024-01-09T00:18:21.489Z,103236.81
2024-01-09T00:20:48.321Z,103248.31
2024-01-09T00:23:18.031Z,103234.81
2024-01-09T00:25:48.944Z,103230.75
2024-01-09T00:28:15.992Z,103222.88
2024-01-09T00:30:42.904Z,103233.91
2024-01-09T00:33:12.494Z,103244.50
2024-01-09T00:35:42.004Z,103242.47
2024-01-09T00:38:11.171Z,103248.56
2024-01-09T00:40:46.517Z,103249.47
2024-01-09T00:43:17.857Z,103239.09
2024-01-09T00:48:27.528Z,103244.50
2024-01-09T00:51:02.105Z,103239.31
2024-01-09T00:53:30.369Z,103226.50
2024-01-09T00:56:00.290Z,103228.97
2024-01-09T00:58:29.789Z,103227.41
2024-01-09T01:00:56.903Z,103233.47
2024-01-09T01:03:26.038Z,103223.59
2024-01-09T01:05:52.849Z,103223.31
2024-01-09T01:08:19.727Z,103216.13
2024-01-09T01:10:46.675Z,103225.16
2024-01-09T01:13:13.564Z,103236.84
2024-01-09T01:15:43.741Z,103227.59
2024-01-09T01:18:10.993Z,103224.22
2024-01-09T01:20:41.210Z,103222.66
2024-01-09T01:23:09.279Z,103227.84
2024-01-09T01:25:39.126Z,103220.41
2024-01-09T01:28:15.098Z,103220.41
2024-01-09T01:30:44.583Z,103217.72
2024-01-09T01:33:15.005Z,103222.44
2024-01-09T01:35:44.782Z,103223.34
2024-01-09T01:40:57.312Z,103223.78
2024-01-09T01:46:06.320Z,103232.78
2024-01-09T01:48:35.192Z,103223.31
2024-01-09T01:51:05.631Z,103225.13
2024-01-09T01:53:35.381Z,103231.66
2024-01-09T01:56:14.956Z,103227.13
2024-01-09T01:58:46.869Z,103230.50
2024-01-09T02:01:19.199Z,103231.66
2024-01-09T02:03:46.470Z,103225.97
2024-01-09T02:06:18.732Z,103216.31
2024-01-09T02:09:01.073Z,103228.44
2024-01-09T02:11:29.787Z,103214.47
2024-01-09T02:13:56.626Z,103220.13
2024-01-09T02:16:23.645Z,103229.81
2024-01-09T02:18:50.862Z,103224.16
2024-01-09T02:21:23.703Z,103227.09
2024-01-09T02:23:50.676Z,103214.47
2024-01-09T02:26:39.590Z,103224.41
2024-01-09T02:29:13.923Z,103220.09
2024-01-09T02:31:43.544Z,103218.53
2024-01-09T02:34:15.205Z,103224.84
2024-01-09T02:36:44.999Z,103217.84
2024-01-09T02:39:14.899Z,103207.72
2024-01-09T02:41:41.721Z,103216.94
2024-01-09T02:44:08.919Z,103225.28
2024-01-09T02:46:45.809Z,103216.94
2024-01-09T02:49:23.053Z,103208.38
2024-01-09T02:51:53.108Z,103207.28
2024-01-09T02:54:19.696Z,103216.03
2024-01-09T02:56:52.320Z,103206.78
2024-01-09T02:59:21.662Z,103218.97
2024-01-09T03:01:48.892Z,103212.88
2024-01-09T03:04:18.775Z,103214.91
2024-01-09T03:06:45.467Z,103211.06
2024-01-09T03:09:12.701Z,103208.78
2024-01-09T03:11:41.857Z,103210.34
2024-01-09T03:14:08.506Z,103209.66
2024-01-09T03:16:35.715Z,103217.75
2024-01-09T03:19:02.430Z,103190.94
2024-01-09T03:21:29.134Z,103208.72
2024-01-09T03:23:56.846Z,103214.34
2024-01-09T03:26:33.646Z,103197.25
2024-01-09T03:29:01.471Z,103207.81
2024-01-09T03:31:37.606Z,103207.38
2024-01-09T03:34:04.407Z,103202.41
2024-01-09T03:36:35.441Z,103209.00
2024-01-09T03:39:02.091Z,103197.50
2024-01-09T03:41:28.882Z,103211.72
2024-01-09T03:43:55.784Z,103209.88
2024-01-09T03:46:22.286Z,103204.69
2024-01-09T03:48:49.406Z,103207.81
2024-01-09T03:51:18.738Z,103201.97
2024-01-09T03:53:45.423Z,103190.28
2024-01-09T03:56:12.225Z,103188.69
2024-01-09T03:58:38.936Z,103198.56
2024-01-09T04:01:09.420Z,103194.53
2024-01-09T04:03:46.838Z,103195.44
2024-01-09T04:06:13.679Z,103187.81
2024-01-09T04:08:41.754Z,103197.91
2024-01-09T04:11:09.359Z,103193.66
2024-01-09T04:13:36.048Z,103198.41
2024-01-09T04:16:05.789Z,103191.19
2024-01-09T04:18:37.177Z,103189.16
2024-01-09T04:21:07.878Z,103203.09
2024-01-09T04:23:39.806Z,103201.31
2024-01-09T04:26:09.181Z,103197.25
2024-01-09T04:28:39.247Z,103193.16
2024-01-09T04:31:09.012Z,103197.91
2024-01-09T04:33:35.844Z,103194.28
2024-01-09T04:36:11.114Z,103184.38
2024-01-09T04:38:40.516Z,103194.28
2024-01-09T04:41:22.542Z,103197.47
2024-01-09T04:43:49.282Z,103195.88
2024-01-09T04:46:15.943Z,103199.69
2024-01-09T04:48:42.818Z,103191.75
2024-01-09T04:51:09.550Z,103197.84
2024-01-09T04:53:36.296Z,103191.50
2024-01-09T04:56:03.204Z,103203.44
2024-01-09T04:58:30.999Z,103197.09
2024-01-09T05:00:58.023Z,103207.00
2024-01-09T05:03:24.950Z,103204.03
2024-01-09T05:05:52.207Z,103214.59
2024-01-09T05:08:19.173Z,103207.31
2024-01-09T05:10:45.928Z,103212.94
2024-01-09T05:13:12.635Z,103207.03
2024-01-09T05:15:39.347Z,103210.41
2024-01-09T05:18:06.273Z,103219.16
2024-01-09T05:20:33.056Z,103208.19
2024-01-09T05:22:59.788Z,103206.59
2024-01-09T05:25:26.590Z,103203.44
2024-01-09T05:27:53.373Z,103210.41
2024-01-09T05:30:20.340Z,103204.53
2024-01-09T05:32:47.182Z,103206.09
2024-01-09T05:35:14.250Z,103214.91
2024-01-09T05:37:41.106Z,103211.09
2024-01-09T05:40:08.674Z,103208.00
2024-01-09T05:42:35.383Z,103213.22
2024-01-09T05:45:02.303Z,103205.34
2024-01-09T05:47:29.069Z,103196.09
2024-01-09T05:49:55.806Z,103205.34
2024-01-09T05:52:22.969Z,103191.16
2024-01-09T05:54:49.626Z,103199.25
2024-01-09T05:57:16.454Z,103198.13
2024-01-09T05:59:43.177Z,103192.03
2024-01-09T06:02:10.072Z,103186.59
2024-01-09T06:04:36.828Z,103197.84
2024-01-09T06:07:03.780Z,103193.09
2024-01-09T06:09:30.494Z,103194.44
2024-01-09T06:11:57.208Z,103206.16
2024-01-09T06:14:23.932Z,103207.25
2024-01-09T06:16:50.681Z,103196.25
2024-01-09T06:19:17.517Z,103199.81
2024-01-09T06:21:44.316Z,103206.00
2024-01-09T06:24:11.015Z,103212.44
2024-01-09T06:26:37.770Z,103211.84
2024-01-09T06:29:06.599Z,103214.94
2024-01-09T06:31:33.815Z,103218.97
2024-01-09T06:34:00.614Z,103222.78
2024-01-09T06:36:30.277Z,103217.13
2024-01-09T06:38:57.975Z,103220.28
2024-01-09T06:41:24.740Z,103220.28
2024-01-09T06:43:51.950Z,103219.78
2024-01-09T06:46:18.698Z,103218.88
2024-01-09T06:48:45.712Z,103225.22
2024-01-09T06:51:13.773Z,103224.28
2024-01-09T06:53:40.564Z,103230.81
2024-01-09T06:56:07.274Z,103222.88
2024-01-09T06:58:33.928Z,103229.56
2024-01-09T07:01:00.822Z,103233.78
2024-01-09T07:03:27.573Z,103225.19
2024-01-09T07:05:54.568Z,103231.97
2024-01-09T07:08:21.597Z,103221.00
2024-01-09T07:10:48.355Z,103220.59
2024-01-09T07:13:15.097Z,103226.00
2024-01-09T07:15:42.319Z,103218.13
2024-01-09T07:18:09.307Z,103238.19
2024-01-09T07:20:36.124Z,103236.34
2024-01-09T07:23:09.839Z,103233.47
2024-01-09T07:25:43.651Z,103231.50
2024-01-09T07:28:10.327Z,103243.06
2024-01-09T07:30:38.220Z,103245.75
2024-01-09T07:33:05.411Z,103238.50
2024-01-09T07:35:35.615Z,103238.75
2024-01-09T07:38:02.520Z,103241.47
2024-01-09T07:40:29.225Z,103239.47
2024-01-09T07:43:01.195Z,103245.38
2024-01-09T07:45:30.126Z,103252.53
2024-01-09T07:47:57.266Z,103242.13
2024-01-09T07:50:24.093Z,103240.25
2024-01-09T07:52:50.833Z,103245.41
2024-01-09T07:55:17.910Z,103253.44
2024-01-09T07:57:44.620Z,103243.06
2024-01-09T08:00:11.956Z,103254.94
2024-01-09T08:02:38.693Z,103250.16
2024-01-09T08:05:05.933Z,103259.16
2024-01-09T08:07:32.662Z,103255.28
2024-01-09T08:09:59.666Z,103256.59
2024-01-09T08:12:26.714Z,103251.38
2024-01-09T08:14:54.470Z,103254.09
2024-01-09T08:17:22.199Z,103253.19
2024-01-09T08:19:48.893Z,103261.06
2024-01-09T08:22:15.801Z,103250.72
2024-01-09T08:24:42.473Z,103259.91
2024-01-09T08:27:09.008Z,103259.03
2024-01-09T08:29:35.536Z,103252.69
2024-01-09T08:32:03.297Z,103254.72
2024-01-09T08:34:30.057Z,103251.63
2024-01-09T08:36:58.121Z,103255.22
2024-01-09T08:39:25.087Z,103251.44
2024-01-09T08:41:51.698Z,103252.78
2024-01-09T08:44:18.697Z,103257.53
2024-01-09T08:46:46.003Z,103253.25
2024-01-09T08:49:14.107Z,103251.75
2024-01-09T08:51:40.814Z,103264.13
2024-01-09T08:54:08.714Z,103259.00
2024-01-09T08:56:36.158Z,103250.72
2024-01-09T08:59:02.936Z,103249.38
2024-01-09T09:01:31.769Z,103245.00
2024-01-09T09:03:58.348Z,103242.97
2024-01-09T09:06:25.003Z,103249.13
2024-01-09T09:08:51.722Z,103256.84
2024-01-09T09:11:19.177Z,103253.25
2024-01-09T09:13:45.855Z,103258.44
2024-01-09T09:16:12.609Z,103256.88
2024-01-09T09:18:39.484Z,103269.94
2024-01-09T09:21:06.394Z,103260.72
2024-01-09T09:23:33.367Z,103270.22
2024-01-09T09:26:00.451Z,103274.75
2024-01-09T09:28:33.804Z,103270.22
2024-01-09T09:31:07.517Z,103265.78
2024-01-09T09:33:35.034Z,103268.78
2024-01-09T09:36:06.368Z,103264.28
2024-01-09T09:38:35.137Z,103269.06
2024-01-09T09:41:08.139Z,103268.19
2024-01-09T09:43:38.278Z,103271.56
2024-01-09T09:46:12.676Z,103271.78
2024-01-09T09:48:40.349Z,103274.09
2024-01-09T09:51:08.754Z,103262.84
2024-01-09T09:53:37.115Z,103261.09
2024-01-09T09:56:04.095Z,103244.88
2024-01-09T09:58:33.014Z,103253.22
2024-01-09T10:01:00.788Z,103253.50
2024-01-09T10:03:35.239Z,103254.91
2024-01-09T10:06:06.077Z,103246.19
2024-01-09T10:08:35.716Z,103252.31
2024-01-09T10:11:02.568Z,103240.19
2024-01-09T10:13:29.424Z,103240.44
2024-01-09T10:16:00.325Z,103234.34
2024-01-09T10:18:30.491Z,103248.34
2024-01-09T10:20:58.585Z,103247.47
2024-01-09T10:23:26.086Z,103251.53
2024-01-09T10:25:53.480Z,103246.13
2024-01-09T10:28:20.226Z,103239.19
2024-01-09T10:30:47.280Z,103234.47
2024-01-09T10:33:15.082Z,103243.72
2024-01-09T10:35:42.359Z,103248.69
2024-01-09T10:38:10.423Z,103248.97
2024-01-09T10:40:38.339Z,103251.44
2024-01-09T10:43:05.188Z,103242.22
2024-01-09T10:45:32.997Z,103248.53
2024-01-09T10:48:00.153Z,103250.34
2024-01-09T10:50:27.301Z,103257.13
2024-01-09T11:01:41.720Z,103249.25
2024-01-09T11:04:09.394Z,103244.75
2024-01-09T11:06:38.476Z,103244.97
2024-01-09T11:09:06.740Z,103228.94
2024-01-09T11:11:37.323Z,103249.47
2024-01-09T11:14:10.348Z,103250.38
2024-01-09T11:16:41.462Z,103223.59
2024-01-09T11:19:10.430Z,103239.13
2024-01-09T11:21:37.213Z,103233.91
2024-01-09T11:24:04.860Z,103231.91
2024-01-09T11:26:37.850Z,103220.41
2024-01-09T11:29:05.754Z,103231.69
2024-01-09T11:31:34.116Z,103228.97
2024-01-09T11:34:03.505Z,103219.72
2024-01-09T11:36:39.302Z,103228.03
2024-01-09T11:39:08.852Z,103212.00
2024-01-09T11:41:37.495Z,103203.44
2024-01-09T11:44:05.523Z,103216.50
2024-01-09T11:46:35.478Z,103203.84
2024-01-09T11:49:03.845Z,103204.50
2024-01-09T11:51:32.527Z,103203.38
2024-01-09T11:54:02.558Z,103199.53
2024-01-09T11:56:29.896Z,103194.75
2024-01-09T11:58:57.965Z,103191.56
2024-01-09T12:01:25.233Z,103198.03
2024-01-09T12:03:56.024Z,103196.00
2024-01-09T12:06:24.671Z,103194.41
2024-01-09T12:08:53.056Z,103193.00
2024-01-09T12:11:20.066Z,103163.44
2024-01-09T12:13:46.929Z,103178.28
2024-01-09T12:16:20.649Z,103187.31
2024-01-09T12:18:56.622Z,103187.50
2024-01-09T12:21:27.296Z,103186.59
2024-01-09T12:24:17.908Z,103178.91
2024-01-09T12:26:44.979Z,103173.72
2024-01-09T12:29:11.979Z,103168.72
2024-01-09T12:31:39.076Z,103178.19
2024-01-09T12:34:07.048Z,103165.50
2024-01-09T12:36:35.436Z,103159.84
2024-01-09T12:39:03.016Z,103158.06
2024-01-09T12:41:30.780Z,103150.38
2024-01-09T12:44:08.897Z,103148.78
2024-01-09T12:46:35.655Z,103152.78
2024-01-09T12:49:03.658Z,103137.69
2024-01-09T12:51:33.657Z,103147.09
2024-01-09T12:54:00.690Z,103143.47
2024-01-09T12:56:28.476Z,103147.28
2024-01-09T12:58:56.012Z,103132.38
2024-01-09T13:01:27.756Z,103131.91
2024-01-09T13:03:55.192Z,103135.50
2024-01-09T13:06:22.142Z,103143.84
2024-01-09T13:08:48.929Z,103142.03
2024-01-09T13:11:15.779Z,103127.41
2024-01-09T13:13:46.814Z,103134.28
2024-01-09T13:16:13.702Z,103137.81
2024-01-09T13:18:40.626Z,103129.25
2024-01-09T13:21:07.937Z,103140.31
2024-01-09T13:26:05.412Z,103148.50
2024-01-09T13:28:33.161Z,103144.66
2024-01-09T13:31:00.606Z,103128.59
2024-01-09T13:33:28.028Z,103129.69
2024-01-09T13:35:56.282Z,103122.41
2024-01-09T13:38:23.017Z,103129.13
2024-01-09T13:40:50.287Z,103108.56
2024-01-09T13:43:17.908Z,103115.22
2024-01-09T13:45:45.036Z,103118.75
2024-01-09T13:48:13.635Z,103117.78
2024-01-09T13:53:11.004Z,103114.59
2024-01-09T13:55:37.750Z,103115.31
2024-01-09T13:58:05.471Z,103112.59
2024-01-09T14:00:32.168Z,103104.09
2024-01-09T14:02:59.537Z,103110.44
2024-01-09T14:05:26.298Z,103107.25
2024-01-09T14:07:52.953Z,103100.00
2024-01-09T14:10:19.640Z,103095.00
2024-01-09T14:12:46.192Z,103092.50
2024-01-09T14:15:14.729Z,103094.03
2024-01-09T14:17:44.318Z,103099.84
2024-01-09T14:20:12.721Z,103100.47
2024-01-09T14:22:39.966Z,103090.06
2024-01-09T14:25:06.664Z,103088.56
2024-01-09T14:27:33.806Z,103090.81
2024-01-09T14:30:00.569Z,103092.22
2024-01-09T14:32:27.919Z,103090.41
2024-01-09T14:34:54.842Z,103092.28
2024-01-09T14:37:21.501Z,103099.75
2024-01-09T14:39:48.041Z,103076.16
2024-01-09T14:42:14.588Z,103090.16
2024-01-09T14:44:41.140Z,103089.22
2024-01-09T14:47:07.790Z,103103.03
2024-01-09T14:49:34.443Z,103098.97
2024-01-09T14:52:01.048Z,103085.44
2024-01-09T14:54:29.139Z,103084.25
2024-01-09T14:56:56.484Z,103085.09
2024-01-09T14:59:23.133Z,103070.91
2024-01-09T15:01:53.201Z,103081.09
2024-01-09T15:04:20.420Z,103074.25
2024-01-09T15:06:48.867Z,103084.19
2024-01-09T15:09:15.667Z,103082.38
2024-01-09T15:11:42.510Z,103077.00
2024-01-09T15:14:09.251Z,103102.47
2024-01-09T15:16:35.953Z,103095.00
2024-01-09T15:19:03.660Z,103090.69
2024-01-09T15:21:33.968Z,103083.50
2024-01-09T15:24:00.593Z,103085.78
2024-01-09T15:26:27.163Z,103102.91
2024-01-09T15:28:53.874Z,103098.63
2024-01-09T15:31:21.977Z,103093.44
2024-01-09T15:33:49.479Z,103091.22
2024-01-09T15:36:17.201Z,103088.53
2024-01-09T15:38:44.838Z,103091.22
2024-01-09T15:41:12.650Z,103086.72
2024-01-09T15:43:39.531Z,103085.44
2024-01-09T15:46:07.880Z,103077.97
2024-01-09T15:48:37.255Z,103086.31
2024-01-09T15:51:05.780Z,103083.69
2024-01-09T15:53:34.632Z,103080.31
2024-01-09T15:56:01.215Z,103072.19
2024-01-09T15:58:28.137Z,103079.66
2024-01-09T16:00:54.866Z,103078.56
2024-01-09T16:03:21.779Z,103075.88
2024-01-09T16:05:48.603Z,103073.41
2024-01-09T16:08:16.770Z,103078.84
2024-01-09T16:10:43.993Z,103067.31
2024-01-09T16:13:10.688Z,103075.22
2024-01-09T16:15:38.613Z,103078.63
2024-01-09T16:18:05.874Z,103075.72
2024-01-09T16:20:33.250Z,103070.16
2024-01-09T16:23:00.035Z,103072.72
2024-01-09T16:25:26.829Z,103079.94
2024-01-09T16:27:56.149Z,103068.25
2024-01-09T16:30:23.333Z,103071.88
2024-01-09T16:32:50.153Z,103068.28
2024-01-09T16:35:16.841Z,103065.16
2024-01-09T16:37:43.460Z,103056.66
2024-01-09T16:40:12.598Z,103072.94
2024-01-09T16:42:39.323Z,103062.34
2024-01-09T16:45:06.338Z,103073.81
2024-01-09T16:47:33.067Z,103077.69
2024-01-09T16:49:59.796Z,103064.84
2024-01-09T16:52:26.495Z,103065.06
2024-01-09T16:54:53.560Z,103063.94
2024-01-09T16:57:20.116Z,103060.56
2024-01-09T16:59:46.686Z,103059.88
2024-01-09T17:02:13.866Z,103061.72
2024-01-09T17:04:43.548Z,103045.09
2024-01-09T17:07:10.201Z,103071.03
2024-01-09T17:09:41.569Z,103053.88
2024-01-09T17:12:08.389Z,103065.81
2024-01-09T17:14:34.946Z,103072.38
2024-01-09T17:17:01.517Z,103069.47
2024-01-09T17:19:29.233Z,103062.47
2024-01-09T17:21:58.971Z,103066.31
2024-01-09T17:24:27.878Z,103071.03
2024-01-09T17:26:55.640Z,103067.66
2024-01-09T17:29:22.380Z,103064.75
2024-01-09T17:31:49.044Z,103062.69
2024-01-09T17:34:15.677Z,103057.56
2024-01-09T17:36:46.128Z,103065.44
2024-01-09T17:39:15.117Z,103062.53
2024-01-09T17:41:42.083Z,103060.47
2024-01-09T17:44:08.717Z,103050.59
2024-01-09T17:46:39.748Z,103055.75
2024-01-09T17:49:06.546Z,103063.19
2024-01-09T17:51:33.352Z,103048.59
2024-01-09T17:53:59.864Z,103054.44
2024-01-09T17:56:26.725Z,103049.50
2024-01-09T17:58:53.276Z,103053.78
2024-01-09T18:01:20.265Z,103055.41
2024-01-09T18:03:46.787Z,103055.66
2024-01-09T18:06:13.376Z,103045.31
2024-01-09T18:08:39.972Z,103033.69
2024-01-09T18:11:06.569Z,103052.81
2024-01-09T18:13:33.190Z,103047.22
2024-01-09T18:15:59.820Z,103037.53
2024-01-09T18:18:30.013Z,103052.25
2024-01-09T18:20:57.114Z,103041.66
2024-01-09T18:23:23.683Z,103049.56
2024-01-09T18:25:50.225Z,103038.53
2024-01-09T18:28:26.395Z,103034.69
2024-01-09T18:30:57.398Z,103033.56
2024-01-09T18:33:24.319Z,103031.09
2024-01-09T18:35:54.366Z,103029.97
2024-01-09T18:38:22.029Z,103038.78
2024-01-09T18:40:48.885Z,103029.78
2024-01-09T18:43:15.609Z,103036.75
2024-01-09T18:45:43.273Z,103040.78
2024-01-09T18:48:15.045Z,103029.78
2024-01-09T18:50:41.756Z,103044.88
2024-01-09T18:53:10.554Z,103047.34
2024-01-09T18:55:37.178Z,103039.25
2024-01-09T18:58:03.880Z,103028.66
2024-01-09T19:00:30.544Z,103041.91
2024-01-09T19:02:57.154Z,103007.94
2024-01-09T19:05:23.797Z,103038.78
2024-01-09T19:07:50.622Z,103034.94
2024-01-09T19:10:17.192Z,103034.69
2024-01-09T19:12:43.740Z,103037.88
2024-01-09T19:15:10.671Z,103043.28
2024-01-09T19:17:37.427Z,103024.59
2024-01-09T19:20:04.204Z,103034.75
2024-01-09T19:22:31.112Z,103036.09
2024-01-09T19:24:57.671Z,103022.13
2024-01-09T19:27:24.201Z,103032.03
2024-01-09T19:29:50.805Z,103029.09
2024-01-09T19:32:18.005Z,103033.16
2024-01-09T19:34:44.680Z,103023.94
2024-01-09T19:37:11.189Z,103015.13
2024-01-09T19:39:38.127Z,103013.56
2024-01-09T19:42:04.945Z,103017.84
2024-01-09T19:44:32.392Z,103016.25
2024-01-09T19:46:59.485Z,103019.63
2024-01-09T19:49:28.574Z,103017.63
2024-01-09T19:51:55.335Z,103003.91
2024-01-09T19:54:21.910Z,103004.81
2024-01-09T19:56:48.394Z,103004.34
2024-01-09T19:59:14.979Z,103007.28
2024-01-09T20:01:44.813Z,103016.75
2024-01-09T20:04:11.455Z,103014.06
2024-01-09T20:06:40.463Z,103016.78
2024-01-09T20:09:10.503Z,103003.06
2024-01-09T20:11:37.353Z,102993.41
2024-01-09T20:14:05.821Z,103006.03
2024-01-09T20:16:32.695Z,103014.81
2024-01-09T20:19:00.720Z,103018.88
2024-01-09T20:21:28.575Z,103026.31
2024-01-09T20:23:55.212Z,103013.50
2024-01-09T20:26:28.363Z,103019.59
2024-01-09T20:28:56.304Z,103011.69
2024-01-09T20:31:26.313Z,103013.50
2024-01-09T20:33:54.410Z,103018.88
2024-01-09T20:36:23.340Z,103015.75
2024-01-09T20:38:52.895Z,103027.44
2024-01-09T20:41:19.496Z,103020.00
2024-01-09T20:43:46.054Z,103028.09
2024-01-09T20:46:12.556Z,103022.25
2024-01-09T20:48:39.302Z,103013.94
2024-01-09T20:51:08.156Z,103017.34
2024-01-09T20:53:35.419Z,103019.81
2024-01-09T20:56:03.726Z,103020.72
2024-01-09T20:58:32.580Z,103019.81
2024-01-09T21:01:00.423Z,103012.59
2024-01-09T21:03:29.254Z,103003.81
2024-01-09T21:05:56.298Z,103007.41
2024-01-09T21:08:23.215Z,103008.13
2024-01-09T21:10:50.262Z,103001.38
2024-01-09T21:13:17.274Z,103003.63
2024-01-09T21:15:44.118Z,102993.25
2024-01-09T21:18:12.198Z,103008.81
2024-01-09T21:20:39.191Z,103007.00
2024-01-09T21:23:05.809Z,103002.72
2024-01-09T21:25:32.484Z,103000.03
2024-01-09T21:27:59.074Z,102996.66
2024-01-09T21:30:25.717Z,102997.31
2024-01-09T21:32:52.902Z,103004.31
2024-01-09T21:35:19.768Z,103003.66
2024-01-09T21:37:48.046Z,103004.09
2024-01-09T21:40:17.211Z,102984.75
2024-01-09T21:42:43.721Z,102996.25
2024-01-09T21:45:11.308Z,102992.19
2024-01-09T21:47:44.523Z,102986.75
2024-01-09T21:50:12.195Z,102986.09
2024-01-09T21:52:39.150Z,102973.72
2024-01-09T21:55:07.863Z,102981.38
2024-01-09T21:57:34.392Z,102986.34
2024-01-09T22:00:00.976Z,102989.25
2024-01-09T22:02:27.651Z,102978.66
2024-01-09T22:04:55.032Z,102980.25
2024-01-09T22:07:21.651Z,102968.75
2024-01-09T22:09:48.302Z,102978.66
2024-01-09T22:12:14.864Z,102977.78
2024-01-09T22:14:41.479Z,102971.22
2024-01-09T22:17:08.204Z,102964.25
2024-01-09T22:19:38.716Z,102956.16
2024-01-09T22:22:05.782Z,102957.06
2024-01-09T22:24:32.319Z,102951.66
2024-01-09T22:26:58.808Z,102951.19
2024-01-09T22:29:25.429Z,102942.19
2024-01-09T22:31:52.810Z,102942.19
2024-01-09T22:34:19.486Z,102948.28
2024-01-09T22:36:46.590Z,102954.13
2024-01-09T22:39:13.142Z,102946.47
2024-01-09T22:41:39.633Z,102933.19
2024-01-09T22:44:06.931Z,102947.59
2024-01-09T22:46:33.591Z,102948.69
2024-01-09T22:49:00.210Z,102948.91
2024-01-09T22:51:26.811Z,102950.72
2024-01-09T22:53:53.344Z,102948.25
2024-01-09T22:56:19.904Z,102942.63
2024-01-09T22:58:46.627Z,102947.13
2024-01-09T23:01:14.204Z,102952.31
2024-01-09T23:03:40.892Z,102947.78
2024-01-09T23:06:07.472Z,102946.47
2024-01-09T23:08:34.060Z,102962.00
2024-01-09T23:11:00.824Z,102951.66
2024-01-09T23:13:27.563Z,102948.94
2024-01-09T23:15:54.278Z,102954.56
2024-01-09T23:18:21.585Z,102957.72
2024-01-09T23:20:48.433Z,102945.34
2024-01-09T23:23:15.648Z,102946.72
2024-01-09T23:25:43.401Z,102946.91
2024-01-09T23:28:09.906Z,102937.94
2024-01-09T23:30:36.416Z,102954.34
2024-01-09T23:33:03.099Z,102940.84
2024-01-09T23:35:29.676Z,102948.72
2024-01-09T23:37:56.265Z,102938.63
2024-01-09T23:40:22.857Z,102948.31
2024-01-09T23:42:49.340Z,102942.47
2024-01-09T23:45:15.966Z,102936.16
2024-01-09T23:47:42.564Z,102937.53
2024-01-09T23:50:09.512Z,102940.00
2024-01-09T23:52:36.281Z,102941.34
2024-01-09T23:55:04.220Z,102940.69
2024-01-09T23:57:30.723Z,102937.56
2024-01-09T23:59:58.073Z,102934.81
